Time;durP1;ratioP1;P1;durP2;ratioP2;P2;SDS_P1;SDS_P2;PMS_P1;PMS_P2;Temp;Humidity;BMP_temperature;BMP_pressure;BME280_temperature;BME280_humidity;BME280_pressure;Samples;Min_cycle;Max_cycle;Signal;HPM_P1;HPM_P2
2021/10/26 00:01:42;;;;;;;7.10;3.78;;;5.70;99.90;;;;;;4995181;28;20027;-82
2021/10/26 00:04:08;;;;;;;6.75;3.92;;;5.70;99.90;;;;;;4985458;28;20491;-81
2021/10/26 00:06:35;;;;;;;6.13;3.90;;;5.70;99.90;;;;;;4985419;28;20026;-82
2021/10/26 00:09:02;;;;;;;5.00;3.42;;;5.70;99.90;;;;;;4984870;28;20030;-82
2021/10/26 00:11:28;;;;;;;6.22;3.38;;;5.70;99.90;;;;;;4992676;28;20030;-81
2021/10/26 00:13:54;;;;;;;7.13;3.95;;;5.70;99.90;;;;;;5004845;28;20022;-82
2021/10/26 00:16:19;;;;;;;6.93;4.22;;;5.70;99.90;;;;;;5004889;28;20486;-82
2021/10/26 00:18:45;;;;;;;7.18;3.95;;;5.70;99.90;;;;;;4986435;28;20118;-82
2021/10/26 00:21:11;;;;;;;6.70;3.80;;;5.70;99.90;;;;;;5004733;28;20034;-82
2021/10/26 00:23:37;;;;;;;8.90;4.65;;;5.60;99.90;;;;;;5004390;28;20054;-83
2021/10/26 00:26:04;;;;;;;7.20;4.38;;;5.60;99.90;;;;;;5004278;28;20011;-81
2021/10/26 00:28:32;;;;;;;5.22;3.70;;;5.60;99.90;;;;;;5003823;28;20408;-81
2021/10/26 00:30:57;;;;;;;5.47;4.00;;;5.60;99.90;;;;;;5003739;28;20403;-83
2021/10/26 00:33:24;;;;;;;5.63;3.60;;;5.50;99.90;;;;;;4985643;28;20118;-83
2021/10/26 00:35:50;;;;;;;6.03;3.40;;;5.50;99.90;;;;;;4985295;28;20061;-81
2021/10/26 00:38:16;;;;;;;6.22;4.13;;;5.50;99.90;;;;;;4986084;28;20022;-83
2021/10/26 00:40:46;;;;;;;6.88;4.07;;;5.40;99.90;;;;;;4987158;28;20073;-82
2021/10/26 00:43:12;;;;;;;6.78;3.83;;;5.50;99.90;;;;;;4985799;28;20058;-82
2021/10/26 00:45:38;;;;;;;5.38;3.90;;;5.50;99.90;;;;;;5003000;28;20026;-82
2021/10/26 00:48:05;;;;;;;7.38;4.47;;;5.50;99.90;;;;;;5003680;28;20022;-82
2021/10/26 00:50:31;;;;;;;5.43;4.30;;;5.50;99.90;;;;;;4985584;28;20531;-82
2021/10/26 00:52:57;;;;;;;5.82;3.67;;;5.50;99.90;;;;;;5003259;28;20023;-82
2021/10/26 00:55:23;;;;;;;5.82;3.83;;;5.50;99.90;;;;;;5002881;28;20452;-81
2021/10/26 00:57:49;;;;;;;6.68;4.15;;;5.50;99.90;;;;;;5003364;28;20046;-82
2021/10/26 01:00:16;;;;;;;4.57;3.47;;;5.50;99.90;;;;;;5002444;28;20022;-82
2021/10/26 01:02:44;;;;;;;6.18;3.35;;;5.50;99.90;;;;;;5000620;28;20360;-81
2021/10/26 01:05:10;;;;;;;6.82;3.70;;;5.50;99.90;;;;;;4983123;28;20027;-82
2021/10/26 01:07:36;;;;;;;7.03;3.50;;;5.50;99.90;;;;;;4984039;28;20261;-82
2021/10/26 01:10:04;;;;;;;4.72;3.38;;;5.40;99.90;;;;;;4970117;28;20023;-83
2021/10/26 01:12:30;;;;;;;7.57;3.63;;;5.40;99.90;;;;;;5000955;28;20460;-82
2021/10/26 01:14:59;;;;;;;5.57;3.47;;;5.40;99.90;;;;;;4989388;28;20024;-83
2021/10/26 01:17:25;;;;;;;5.63;3.22;;;5.40;99.90;;;;;;5005753;28;20053;-83
2021/10/26 01:19:52;;;;;;;4.25;3.10;;;5.40;99.90;;;;;;5001911;28;20022;-83
2021/10/26 01:22:20;;;;;;;6.55;3.25;;;5.50;99.90;;;;;;5000423;28;20054;-82
2021/10/26 01:24:47;;;;;;;4.20;2.90;;;5.50;99.90;;;;;;5010876;28;20069;-82
2021/10/26 01:27:14;;;;;;;6.07;3.58;;;5.50;99.90;;;;;;5017546;28;20017;-81
2021/10/26 01:29:40;;;;;;;4.88;3.45;;;5.40;99.90;;;;;;5013653;28;20088;-82
2021/10/26 01:32:08;;;;;;;5.90;3.08;;;5.40;99.90;;;;;;4994697;28;20022;-83
2021/10/26 01:34:34;;;;;;;3.72;2.95;;;5.40;99.90;;;;;;5006762;28;20061;-81
2021/10/26 01:37:01;;;;;;;3.78;2.80;;;5.50;99.90;;;;;;4990538;28;20023;-83
2021/10/26 01:39:28;;;;;;;3.85;2.53;;;5.40;99.90;;;;;;4999026;28;20115;-82
2021/10/26 01:41:59;;;;;;;3.45;2.50;;;5.40;99.90;;;;;;4989277;28;20117;-83
2021/10/26 01:44:28;;;;;;;4.25;2.88;;;5.50;99.90;;;;;;5003618;28;20033;-82
2021/10/26 01:46:54;;;;;;;3.55;2.72;;;5.50;99.90;;;;;;5010686;28;20418;-83
2021/10/26 01:49:22;;;;;;;4.28;2.95;;;5.50;99.90;;;;;;5004832;28;20475;-81
2021/10/26 01:51:49;;;;;;;4.93;3.10;;;5.50;99.90;;;;;;5004232;28;20130;-81
2021/10/26 01:54:16;;;;;;;3.83;2.50;;;5.50;99.90;;;;;;4985626;28;20026;-82
2021/10/26 01:56:42;;;;;;;6.07;2.80;;;5.60;99.90;;;;;;5002342;28;20022;-83
2021/10/26 01:59:09;;;;;;;5.15;3.15;;;5.60;99.90;;;;;;4986509;28;20081;-83
2021/10/26 02:01:35;;;;;;;5.55;3.20;;;5.60;99.90;;;;;;4986159;28;20026;-82
2021/10/26 02:04:00;;;;;;;3.95;2.72;;;5.50;99.90;;;;;;5003596;28;20039;-83
2021/10/26 02:06:26;;;;;;;3.28;2.85;;;5.50;99.90;;;;;;5003258;28;20061;-82
2021/10/26 02:08:52;;;;;;;5.30;3.15;;;5.50;99.90;;;;;;5005851;28;20037;-82
2021/10/26 02:11:18;;;;;;;3.97;3.40;;;5.40;99.90;;;;;;5008829;28;20125;-82
2021/10/26 02:13:44;;;;;;;3.10;2.45;;;5.50;99.90;;;;;;5008076;28;20033;-82
2021/10/26 02:16:10;;;;;;;3.33;2.67;;;5.40;99.90;;;;;;5002807;28;20030;-83
2021/10/26 02:18:35;;;;;;;4.55;2.72;;;5.40;99.90;;;;;;5003108;28;20054;-83
2021/10/26 02:21:02;;;;;;;5.18;2.75;;;5.30;99.90;;;;;;4985791;28;20169;-82
2021/10/26 02:23:29;;;;;;;3.92;2.70;;;5.40;99.90;;;;;;4987704;28;20030;-83
2021/10/26 02:25:55;;;;;;;4.43;2.75;;;5.30;99.90;;;;;;5002323;28;20033;-82
2021/10/26 02:28:20;;;;;;;5.63;2.95;;;5.30;99.90;;;;;;4985312;28;20030;-82
2021/10/26 02:30:46;;;;;;;3.45;2.60;;;5.30;99.90;;;;;;5002835;28;20090;-80
2021/10/26 02:33:14;;;;;;;3.63;2.67;;;5.30;99.90;;;;;;4984471;28;20058;-81
2021/10/26 02:35:40;;;;;;;3.45;2.30;;;5.30;99.90;;;;;;4969431;28;20031;-82
2021/10/26 02:38:06;;;;;;;2.20;1.88;;;5.30;99.90;;;;;;4965603;28;20065;-82
2021/10/26 02:40:33;;;;;;;3.05;2.20;;;5.30;99.90;;;;;;4981136;28;20434;-81
2021/10/26 02:42:59;;;;;;;3.15;2.25;;;5.30;99.90;;;;;;5000522;28;20386;-82
2021/10/26 02:45:28;;;;;;;3.17;2.60;;;5.30;99.90;;;;;;4972699;28;20054;-82
2021/10/26 02:47:55;;;;;;;3.97;2.53;;;5.30;99.90;;;;;;4980163;28;20011;-82
2021/10/26 02:50:21;;;;;;;1.90;1.80;;;5.30;99.90;;;;;;4981102;28;20030;-82
2021/10/26 02:52:47;;;;;;;2.85;2.10;;;5.30;99.90;;;;;;4980855;28;20018;-82
2021/10/26 02:55:13;;;;;;;2.95;2.35;;;5.30;99.90;;;;;;4985532;28;20029;-82
2021/10/26 02:57:39;;;;;;;3.60;2.42;;;5.20;99.90;;;;;;4983131;28;20041;-82
2021/10/26 03:00:07;;;;;;;4.25;2.55;;;5.20;99.90;;;;;;4982655;28;20023;-82
2021/10/26 03:02:35;;;;;;;4.07;2.05;;;5.20;99.90;;;;;;5001803;28;20022;-82
2021/10/26 03:05:01;;;;;;;4.55;2.55;;;5.20;99.90;;;;;;4998592;28;20057;-82
2021/10/26 03:07:27;;;;;;;2.85;2.17;;;5.20;99.90;;;;;;4980995;28;20027;-82
2021/10/26 03:09:52;;;;;;;3.08;2.40;;;5.20;99.90;;;;;;4962592;28;20054;-83
2021/10/26 03:12:18;;;;;;;3.33;1.98;;;5.20;99.90;;;;;;4994643;28;20023;-82
2021/10/26 03:14:44;;;;;;;2.60;1.70;;;5.20;99.90;;;;;;4999948;28;20046;-82
2021/10/26 03:17:09;;;;;;;2.63;1.85;;;5.20;99.90;;;;;;4999642;28;20038;-82
2021/10/26 03:19:35;;;;;;;2.10;1.90;;;5.10;99.90;;;;;;5001545;28;20118;-82
2021/10/26 03:22:01;;;;;;;3.58;2.38;;;5.10;99.90;;;;;;4999998;28;20027;-82
2021/10/26 03:24:30;;;;;;;2.80;2.22;;;5.10;99.90;;;;;;4982762;28;20022;-82
2021/10/26 03:26:56;;;;;;;3.95;2.25;;;5.10;99.90;;;;;;4987780;28;20023;-81
2021/10/26 03:29:22;;;;;;;3.80;2.13;;;5.10;99.90;;;;;;4980681;28;20146;-82
2021/10/26 03:31:51;;;;;;;2.55;2.03;;;5.10;99.90;;;;;;4980299;28;20026;-82
2021/10/26 03:34:17;;;;;;;2.22;2.03;;;5.10;99.90;;;;;;4980144;28;20102;-82
2021/10/26 03:36:42;;;;;;;2.45;1.90;;;5.10;99.90;;;;;;4969550;28;20027;-82
2021/10/26 03:39:08;;;;;;;2.88;1.90;;;5.10;99.90;;;;;;5000045;28;20027;-82
2021/10/26 03:41:44;;;;;;;3.53;1.88;;;5.00;99.90;;;;;;4980217;28;20033;-82
2021/10/26 03:44:10;;;;;;;3.35;1.98;;;5.10;99.90;;;;;;5015794;28;20026;-82
2021/10/26 03:46:36;;;;;;;2.67;1.70;;;5.10;99.90;;;;;;5001747;28;20119;-82
2021/10/26 03:49:03;;;;;;;2.90;2.05;;;5.10;99.90;;;;;;4999263;28;20107;-82
2021/10/26 03:51:30;;;;;;;2.38;2.13;;;5.00;99.90;;;;;;4999802;28;20026;-82
2021/10/26 03:53:56;;;;;;;2.35;2.08;;;5.10;99.90;;;;;;4983424;28;20050;-82
2021/10/26 03:56:22;;;;;;;2.72;1.90;;;5.00;99.90;;;;;;5001233;28;20088;-82
2021/10/26 03:58:48;;;;;;;3.13;1.90;;;5.00;99.90;;;;;;5001517;28;20483;-81
2021/10/26 04:01:15;;;;;;;3.17;2.20;;;5.00;99.90;;;;;;4982542;28;20026;-82
2021/10/26 04:03:41;;;;;;;3.67;2.15;;;5.00;99.90;;;;;;5000467;28;20050;-82
2021/10/26 04:06:10;;;;;;;3.00;2.40;;;5.00;99.90;;;;;;5003441;28;20118;-82
2021/10/26 04:08:49;;;;;;;3.03;2.10;;;5.00;99.90;;;;;;5003539;28;20050;-81
2021/10/26 04:11:19;;;;;;;3.03;2.30;;;5.00;99.90;;;;;;4972905;28;20026;-81
2021/10/26 04:13:45;;;;;;;3.03;1.95;;;5.00;99.90;;;;;;5002299;28;20022;-81
2021/10/26 04:16:11;;;;;;;4.22;2.05;;;5.00;99.90;;;;;;5003693;28;20390;-81
2021/10/26 04:18:37;;;;;;;2.33;2.13;;;5.00;99.90;;;;;;5002386;28;20029;-82
2021/10/26 04:21:04;;;;;;;1.70;1.60;;;5.00;99.90;;;;;;5003431;28;20034;-82
2021/10/26 04:23:30;;;;;;;4.15;1.83;;;5.00;99.90;;;;;;5019484;22;20042;-76
2021/10/26 04:25:56;;;;;;;2.08;1.70;;;5.10;99.90;;;;;;5033017;28;20025;-76
2021/10/26 04:28:22;;;;;;;2.10;1.90;;;5.00;99.90;;;;;;5037225;28;20033;-76
2021/10/26 04:30:49;;;;;;;2.88;2.15;;;5.00;99.90;;;;;;5034244;28;20038;-77
2021/10/26 04:33:15;;;;;;;2.67;1.70;;;5.10;99.90;;;;;;5017261;28;20053;-76
2021/10/26 04:35:42;;;;;;;3.90;2.28;;;5.10;99.90;;;;;;5034259;28;20018;-75
2021/10/26 04:38:08;;;;;;;3.25;2.03;;;5.10;99.90;;;;;;5033670;28;20052;-76
2021/10/26 04:40:34;;;;;;;2.58;1.70;;;5.10;99.90;;;;;;5035144;28;20032;-77
2021/10/26 04:43:01;;;;;;;2.72;2.03;;;5.10;99.90;;;;;;5034336;28;20127;-76
2021/10/26 04:45:31;;;;;;;2.17;1.73;;;5.20;99.90;;;;;;5033910;28;20494;-76
2021/10/26 04:47:57;;;;;;;1.65;1.55;;;5.20;99.90;;;;;;5034757;28;20036;-77
2021/10/26 04:50:23;;;;;;;2.33;1.88;;;5.20;99.90;;;;;;5034589;28;20503;-76
2021/10/26 04:52:49;;;;;;;6.88;2.00;;;5.20;99.90;;;;;;5034641;28;20030;-76
2021/10/26 04:55:16;;;;;;;4.43;2.80;;;5.20;99.90;;;;;;5025940;28;20018;-76
2021/10/26 04:57:43;;;;;;;4.13;2.33;;;5.20;99.90;;;;;;5034282;28;20203;-76
2021/10/26 05:00:10;;;;;;;3.95;2.60;;;5.30;99.90;;;;;;5016729;28;20105;-76
2021/10/26 05:02:37;;;;;;;4.47;2.42;;;5.30;99.90;;;;;;5016299;28;20029;-76
2021/10/26 05:05:04;;;;;;;3.22;2.30;;;5.40;99.90;;;;;;4996141;28;20426;-76
2021/10/26 05:07:30;;;;;;;2.17;1.70;;;5.40;99.90;;;;;;5014730;28;20080;-76
2021/10/26 05:09:56;;;;;;;4.15;2.65;;;5.40;99.90;;;;;;5014095;28;20022;-76
2021/10/26 05:12:22;;;;;;;4.40;2.67;;;5.40;99.90;;;;;;5013429;28;20054;-76
2021/10/26 05:14:47;;;;;;;4.07;2.47;;;5.50;99.90;;;;;;5014202;28;20033;-76
2021/10/26 05:17:18;;;;;;;4.07;2.50;;;5.50;99.90;;;;;;5013652;28;20026;-76
2021/10/26 05:19:46;;;;;;;3.60;1.98;;;5.50;99.90;;;;;;5014535;28;20088;-76
2021/10/26 05:22:12;;;;;;;3.78;2.60;;;5.50;99.90;;;;;;5023998;28;20122;-76
2021/10/26 05:24:38;;;;;;;3.40;2.47;;;5.50;99.90;;;;;;5033431;28;20526;-76
2021/10/26 05:27:04;;;;;;;2.83;2.15;;;5.50;99.90;;;;;;5023383;28;20053;-76
2021/10/26 05:29:31;;;;;;;3.53;2.22;;;5.50;99.90;;;;;;5013817;28;20105;-76
2021/10/26 05:31:57;;;;;;;4.30;2.50;;;5.40;99.90;;;;;;5015903;28;20550;-76
2021/10/26 05:34:24;;;;;;;4.70;2.40;;;5.40;99.90;;;;;;5019292;28;20061;-76
2021/10/26 05:36:51;;;;;;;3.13;2.15;;;5.40;99.90;;;;;;5035296;28;20493;-76
2021/10/26 05:39:18;;;;;;;4.93;2.58;;;5.30;99.90;;;;;;5034376;28;20033;-76
2021/10/26 05:41:45;;;;;;;4.95;2.40;;;5.30;99.90;;;;;;5033442;28;20075;-76
2021/10/26 05:44:11;;;;;;;3.97;2.50;;;5.30;99.90;;;;;;5014981;28;20040;-76
2021/10/26 05:46:36;;;;;;;4.72;2.60;;;5.30;99.90;;;;;;5032958;28;20075;-77
2021/10/26 05:49:04;;;;;;;4.15;2.75;;;5.40;99.90;;;;;;5015481;28;20546;-76
2021/10/26 05:51:29;;;;;;;4.53;2.80;;;5.40;99.90;;;;;;5033042;28;20478;-76
2021/10/26 05:53:55;;;;;;;3.40;1.98;;;5.40;99.90;;;;;;5030353;28;20040;-76
2021/10/26 05:56:23;;;;;;;4.30;2.55;;;5.50;99.90;;;;;;5017661;28;20207;-76
2021/10/26 05:58:50;;;;;;;3.30;2.28;;;5.50;99.90;;;;;;5032613;28;20029;-76
2021/10/26 06:01:17;;;;;;;5.78;2.63;;;5.60;99.90;;;;;;5033247;28;20121;-76
2021/10/26 06:03:43;;;;;;;3.20;2.28;;;5.80;99.90;;;;;;5033238;28;20079;-76
2021/10/26 06:06:12;;;;;;;3.05;2.33;;;5.90;99.90;;;;;;5033157;28;20662;-76
2021/10/26 06:08:37;;;;;;;3.45;2.00;;;5.90;99.90;;;;;;5033280;28;20105;-76
2021/10/26 06:11:08;;;;;;;3.38;2.38;;;6.00;99.90;;;;;;5033314;28;20060;-76
2021/10/26 06:13:37;;;;;;;4.80;2.92;;;6.10;99.90;;;;;;5033537;28;20022;-76
2021/10/26 06:16:03;;;;;;;4.80;3.95;;;6.30;99.90;;;;;;5034200;28;20017;-78
2021/10/26 06:18:29;;;;;;;19.02;10.93;;;6.50;99.90;;;;;;5035045;28;20025;-76
2021/10/26 06:20:55;;;;;;;14.05;9.10;;;6.70;99.90;;;;;;5035672;28;20409;-77
2021/10/26 06:23:20;;;;;;;10.88;6.88;;;6.80;99.90;;;;;;5038886;28;20042;-76
2021/10/26 06:25:46;;;;;;;10.70;7.47;;;6.80;99.90;;;;;;5032513;28;20026;-76
2021/10/26 06:28:12;;;;;;;10.02;5.40;;;6.80;99.90;;;;;;5011801;28;20041;-76
2021/10/26 06:30:38;;;;;;;6.45;4.43;;;6.80;99.90;;;;;;4994993;28;20057;-76
2021/10/26 06:33:04;;;;;;;6.63;4.30;;;6.80;99.90;;;;;;5012396;28;20029;-76
2021/10/26 06:35:30;;;;;;;5.32;4.00;;;6.90;99.90;;;;;;5019077;28;20022;-75
2021/10/26 06:37:56;;;;;;;6.47;3.25;;;6.90;99.90;;;;;;5037314;28;20018;-76
2021/10/26 06:40:24;;;;;;;7.05;3.78;;;7.00;99.90;;;;;;5037073;28;20560;-76
2021/10/26 06:42:50;;;;;;;4.00;2.75;;;7.00;99.90;;;;;;5018973;28;20120;-76
2021/10/26 06:45:15;;;;;;;4.85;3.28;;;7.10;99.90;;;;;;5033279;28;20033;-76
2021/10/26 06:47:41;;;;;;;6.35;3.83;;;7.20;99.90;;;;;;5032991;28;20029;-75
2021/10/26 06:50:08;;;;;;;6.63;3.42;;;7.20;99.90;;;;;;5032451;28;20022;-76
2021/10/26 06:52:35;;;;;;;3.72;3.08;;;7.30;99.90;;;;;;5032605;28;20108;-76
2021/10/26 06:55:01;;;;;;;7.95;3.63;;;7.40;99.80;;;;;;5032903;28;20025;-76
2021/10/26 06:57:28;;;;;;;4.05;3.08;;;7.50;99.70;;;;;;5032085;28;20074;-75
2021/10/26 06:59:54;;;;;;;6.13;2.97;;;7.50;98.90;;;;;;5033526;28;20029;-76
2021/10/26 07:02:20;;;;;;;5.28;2.80;;;7.40;98.70;;;;;;5033005;28;20018;-76
2021/10/26 07:04:46;;;;;;;5.00;3.00;;;7.40;98.50;;;;;;5034152;28;20049;-76
2021/10/26 07:07:12;;;;;;;5.05;3.08;;;7.40;98.50;;;;;;5016409;28;20037;-76
2021/10/26 07:09:38;;;;;;;3.47;2.40;;;7.40;98.50;;;;;;5033399;28;20083;-75
2021/10/26 07:12:05;;;;;;;5.60;3.33;;;7.40;98.40;;;;;;5033961;28;20056;-76
2021/10/26 07:14:31;;;;;;;3.45;2.85;;;7.40;98.40;;;;;;5016685;28;20030;-76
2021/10/26 07:16:57;;;;;;;3.75;2.70;;;7.50;98.20;;;;;;5033388;28;20030;-76
2021/10/26 07:19:23;;;;;;;3.25;2.50;;;7.50;98.10;;;;;;5033019;28;20032;-76
2021/10/26 07:21:49;;;;;;;5.03;2.47;;;7.50;98.10;;;;;;5015357;28;20045;-76
2021/10/26 07:24:15;;;;;;;4.05;2.78;;;7.50;98.10;;;;;;5032678;28;20029;-76
2021/10/26 07:26:41;;;;;;;3.42;2.67;;;7.40;98.10;;;;;;5027162;28;20378;-76
2021/10/26 07:29:07;;;;;;;6.32;3.00;;;7.40;98.10;;;;;;5033427;28;20074;-76
2021/10/26 07:31:33;;;;;;;3.65;2.35;;;7.40;98.10;;;;;;5034038;28;20508;-76
2021/10/26 07:34:00;;;;;;;5.00;3.00;;;7.30;98.20;;;;;;5034401;28;20474;-76
2021/10/26 07:36:41;;;;;;;2.90;2.47;;;7.30;98.30;;;;;;5033061;28;20025;-76
2021/10/26 07:39:19;;;;;;;2.47;2.17;;;7.40;98.40;;;;;;5035938;28;20104;-77
2021/10/26 07:41:45;;;;;;;2.85;2.00;;;7.60;98.40;;;;;;5038702;28;20028;-77
2021/10/26 07:44:11;;;;;;;3.50;2.20;;;7.90;98.10;;;;;;5037061;28;20029;-77
2021/10/26 07:46:37;;;;;;;3.65;2.20;;;8.30;97.40;;;;;;5018748;28;20025;-77
2021/10/26 07:49:06;;;;;;;3.58;2.53;;;8.50;96.60;;;;;;5037217;28;20152;-76
2021/10/26 07:51:32;;;;;;;3.17;2.40;;;8.70;95.80;;;;;;5018662;28;20018;-76
2021/10/26 07:53:58;;;;;;;3.70;2.58;;;8.90;95.20;;;;;;5036902;28;20022;-76
2021/10/26 07:56:24;;;;;;;3.05;1.95;;;9.10;94.80;;;;;;5015404;28;20104;-76
2021/10/26 07:58:49;;;;;;;5.20;2.78;;;9.30;94.40;;;;;;5004082;28;20084;-76
2021/10/26 08:01:15;;;;;;;3.42;2.78;;;9.60;93.90;;;;;;4999826;28;20037;-76
2021/10/26 08:03:41;;;;;;;2.60;2.20;;;9.80;93.50;;;;;;5022299;28;20025;-76
2021/10/26 08:06:08;;;;;;;2.00;1.80;;;10.20;92.90;;;;;;5036986;28;20037;-76
2021/10/26 08:08:35;;;;;;;3.95;2.25;;;10.60;92.20;;;;;;5019475;28;20031;-77
2021/10/26 08:11:02;;;;;;;4.65;3.00;;;11.00;91.40;;;;;;5039003;28;20385;-77
2021/10/26 08:13:28;;;;;;;4.82;3.80;;;11.40;90.20;;;;;;5037915;28;20091;-76
2021/10/26 08:15:53;;;;;;;4.20;3.10;;;11.60;88.50;;;;;;5038683;28;20029;-76
2021/10/26 08:18:19;;;;;;;5.32;3.10;;;11.60;87.60;;;;;;5037122;28;20021;-77
2021/10/26 08:20:48;;;;;;;5.43;3.08;;;11.70;87.00;;;;;;5037716;28;20079;-77
2021/10/26 08:23:15;;;;;;;4.43;3.05;;;11.80;87.10;;;;;;5037008;28;20076;-77
2021/10/26 08:25:45;;;;;;;4.10;2.50;;;11.80;86.20;;;;;;5004852;28;20057;-76
2021/10/26 08:28:15;;;;;;;2.97;2.05;;;11.80;86.30;;;;;;5025593;28;20073;-76
2021/10/26 08:30:48;;;;;;;2.58;2.20;;;11.70;86.30;;;;;;5028332;28;20026;-77
2021/10/26 08:33:21;;;;;;;3.72;2.70;;;11.60;86.60;;;;;;5004336;28;20026;-77
2021/10/26 08:35:47;;;;;;;3.67;3.10;;;11.60;87.30;;;;;;4999514;28;20421;-77
2021/10/26 08:38:14;;;;;;;3.38;2.10;;;11.50;88.40;;;;;;5022704;28;20055;-76
2021/10/26 08:40:50;;;;;;;2.50;2.05;;;11.40;89.60;;;;;;5036510;28;20030;-77
2021/10/26 08:43:18;;;;;;;3.83;2.10;;;11.40;90.10;;;;;;5035763;28;20488;-76
2021/10/26 08:45:51;;;;;;;2.20;1.67;;;11.40;90.60;;;;;;5037158;28;20025;-76
2021/10/26 08:48:23;;;;;;;3.40;2.15;;;11.40;91.10;;;;;;5036433;28;20053;-75
2021/10/26 08:50:52;;;;;;;2.20;2.00;;;11.30;91.60;;;;;;5037729;28;20044;-76
2021/10/26 08:53:18;;;;;;;3.67;2.20;;;11.30;91.90;;;;;;5036883;28;20034;-76
2021/10/26 08:55:55;;;;;;;4.13;2.65;;;11.20;92.30;;;;;;5029680;28;20049;-77
2021/10/26 08:58:21;;;;;;;3.70;2.53;;;11.20;92.80;;;;;;5017833;28;20026;-76
2021/10/26 09:00:51;;;;;;;6.47;3.85;;;11.10;93.50;;;;;;5016978;28;20445;-76
2021/10/26 09:03:35;;;;;;;3.70;2.83;;;11.20;94.00;;;;;;5002618;28;20041;-76
2021/10/26 09:06:03;;;;;;;5.35;3.53;;;11.40;94.40;;;;;;5015940;28;20049;-76
2021/10/26 09:08:29;;;;;;;6.20;3.50;;;11.60;94.50;;;;;;5008192;28;20025;-76
2021/10/26 09:11:24;;;;;;;9.57;5.20;;;11.80;94.60;;;;;;5017367;28;20478;-76
2021/10/26 09:16:41;;;;;;;10.38;6.05;;;12.30;94.10;;;;;;5035195;28;20028;-75
2021/10/26 09:19:18;;;;;;;7.55;5.68;;;12.40;94.00;;;;;;5034241;28;20026;-75
2021/10/26 09:22:03;;;;;;;8.45;5.13;;;12.60;93.90;;;;;;5034749;28;20022;-76
2021/10/26 09:24:30;;;;;;;7.00;5.10;;;12.70;94.00;;;;;;5036078;28;20053;-76
2021/10/26 09:27:02;;;;;;;7.40;5.45;;;12.90;93.90;;;;;;5029565;28;20106;-76
2021/10/26 09:29:34;;;;;;;8.32;5.10;;;13.00;93.50;;;;;;5023620;28;20119;-76
2021/10/26 09:32:07;;;;;;;7.97;5.28;;;13.10;93.10;;;;;;5017318;28;20055;-77
2021/10/26 09:34:46;;;;;;;10.32;6.15;;;13.00;93.30;;;;;;5018122;28;20354;-76
2021/10/26 09:37:13;;;;;;;7.75;5.57;;;12.90;92.90;;;;;;5017804;28;20075;-76
2021/10/26 09:39:39;;;;;;;10.88;6.40;;;12.90;93.40;;;;;;5034267;28;20026;-76
2021/10/26 09:42:07;;;;;;;7.93;6.13;;;12.90;93.50;;;;;;5035250;28;20025;-76
2021/10/26 09:44:43;;;;;;;9.10;6.40;;;12.90;93.70;;;;;;5017101;28;20429;-76
2021/10/26 09:47:14;;;;;;;7.97;6.03;;;12.90;93.80;;;;;;5035074;28;20435;-76
2021/10/26 09:49:42;;;;;;;9.93;6.03;;;12.90;94.00;;;;;;5034403;28;20026;-76
2021/10/26 09:52:28;;;;;;;9.00;6.10;;;12.80;94.10;;;;;;5035651;28;20394;-76
2021/10/26 09:55:11;;;;;;;8.93;6.38;;;12.70;94.30;;;;;;5033903;28;20386;-78
2021/10/26 09:57:38;;;;;;;7.25;5.43;;;12.50;94.70;;;;;;4997354;28;20112;-77
2021/10/26 10:00:09;;;;;;;7.25;5.40;;;12.40;95.20;;;;;;5017489;28;20395;-77
2021/10/26 10:02:34;;;;;;;6.43;4.97;;;12.30;95.60;;;;;;5017365;28;20037;-77
2021/10/26 10:05:03;;;;;;;7.63;5.70;;;12.30;96.10;;;;;;5031876;28;20243;-76
2021/10/26 10:07:33;;;;;;;9.55;7.22;;;12.30;96.50;;;;;;5024275;28;20049;-77
2021/10/26 10:10:03;;;;;;;8.85;6.15;;;12.40;96.60;;;;;;5016579;28;20049;-79
2021/10/26 10:12:30;;;;;;;10.98;6.70;;;12.50;96.60;;;;;;5036116;28;20032;-77
2021/10/26 10:14:56;;;;;;;12.20;7.00;;;12.60;96.60;;;;;;5027258;28;20219;-76
2021/10/26 10:17:24;;;;;;;8.68;5.85;;;12.80;96.20;;;;;;5034848;28;20021;-76
2021/10/26 10:19:51;;;;;;;10.60;6.03;;;13.00;96.00;;;;;;5034612;28;20033;-77
2021/10/26 10:22:25;;;;;;;9.00;5.20;;;13.20;95.50;;;;;;5019427;28;20541;-77
2021/10/26 10:24:58;;;;;;;8.35;5.25;;;13.30;95.20;;;;;;5042187;22;20053;-79
2021/10/26 10:27:28;;;;;;;9.38;5.32;;;13.40;95.20;;;;;;5016543;28;20113;-79
2021/10/26 10:29:55;;;;;;;7.32;6.03;;;13.40;94.90;;;;;;5020869;28;20093;-79
2021/10/26 10:32:29;;;;;;;7.65;5.35;;;13.50;94.50;;;;;;5020973;28;20029;-78
2021/10/26 10:34:56;;;;;;;8.68;5.22;;;13.60;94.60;;;;;;5022893;28;20566;-78
2021/10/26 10:37:28;;;;;;;9.40;5.18;;;13.90;94.10;;;;;;5022694;28;20152;-78
2021/10/26 10:39:58;;;;;;;10.15;6.10;;;14.20;93.10;;;;;;5006113;28;20022;-78
2021/10/26 10:42:25;;;;;;;8.30;6.57;;;14.30;92.30;;;;;;5003609;28;20033;-78
2021/10/26 10:44:59;;;;;;;11.23;7.53;;;14.50;91.90;;;;;;5018839;28;20402;-79
2021/10/26 10:47:38;;;;;;;10.38;5.78;;;14.50;91.30;;;;;;5019568;28;20084;-77
2021/10/26 10:50:29;;;;;;;7.82;4.75;;;14.50;91.00;;;;;;5011291;28;20022;-78
2021/10/26 10:53:24;;;;;;;6.30;4.63;;;14.60;91.30;;;;;;4993961;28;20022;-79
2021/10/26 10:56:24;;;;;;;10.77;6.07;;;14.80;91.10;;;;;;5016572;28;20038;-79
2021/10/26 10:58:54;;;;;;;12.38;6.47;;;14.80;90.30;;;;;;5013121;28;20033;-78
2021/10/26 11:01:35;;;;;;;8.55;6.45;;;14.70;90.00;;;;;;5022187;28;20021;-78
2021/10/26 11:04:20;;;;;;;9.55;5.75;;;14.60;90.10;;;;;;5020131;28;20022;-79
2021/10/26 11:06:45;;;;;;;9.45;6.80;;;14.50;90.40;;;;;;5019866;28;20505;-79
2021/10/26 11:09:27;;;;;;;9.43;6.72;;;14.30;90.50;;;;;;5020113;28;20030;-79
2021/10/26 11:12:20;;;;;;;10.73;7.15;;;14.00;91.10;;;;;;5020506;28;20056;-78
2021/10/26 11:14:49;;;;;;;8.27;5.90;;;14.00;92.00;;;;;;5026060;28;20113;-78
2021/10/26 11:17:34;;;;;;;8.55;6.22;;;14.20;91.80;;;;;;5027672;28;20018;-78
2021/10/26 11:20:32;;;;;;;7.75;5.78;;;14.50;91.00;;;;;;5010900;28;20441;-78
2021/10/26 11:23:08;;;;;;;10.02;6.70;;;14.70;90.50;;;;;;5021756;28;20087;-80
2021/10/26 11:25:40;;;;;;;8.45;6.05;;;14.70;90.00;;;;;;5024875;28;20383;-80
2021/10/26 11:28:12;;;;;;;10.05;5.72;;;14.40;90.00;;;;;;5015915;28;20029;-79
2021/10/26 11:30:47;;;;;;;9.20;6.18;;;14.20;90.60;;;;;;5025968;28;20360;-79
2021/10/26 11:33:13;;;;;;;11.18;6.13;;;14.10;90.90;;;;;;5025543;28;20040;-78
2021/10/26 11:35:50;;;;;;;8.73;5.72;;;14.00;91.30;;;;;;5008201;28;20054;-79
2021/10/26 11:38:29;;;;;;;9.75;6.78;;;14.10;91.70;;;;;;5009073;28;20036;-79
2021/10/26 11:41:21;;;;;;;8.63;5.20;;;14.20;91.60;;;;;;5028214;28;20021;-79
2021/10/26 11:43:58;;;;;;;10.75;6.72;;;14.20;91.30;;;;;;5027640;28;20034;-79
2021/10/26 11:46:24;;;;;;;9.57;6.15;;;14.20;90.80;;;;;;5027324;28;20046;-79
2021/10/26 11:49:03;;;;;;;7.85;5.78;;;14.20;90.90;;;;;;5025386;28;20044;-78
2021/10/26 11:51:34;;;;;;;10.95;5.90;;;14.10;91.30;;;;;;5026568;28;20041;-79
2021/10/26 11:54:04;;;;;;;8.75;6.63;;;14.20;91.10;;;;;;5008460;28;20037;-78
2021/10/26 11:56:46;;;;;;;8.05;5.45;;;14.30;90.70;;;;;;5026001;28;20135;-79
2021/10/26 11:59:17;;;;;;;8.77;6.10;;;14.30;90.80;;;;;;5006782;28;20026;-78
2021/10/26 12:01:50;;;;;;;9.00;5.53;;;14.20;90.90;;;;;;5007360;28;20033;-79
2021/10/26 12:04:17;;;;;;;8.57;6.25;;;14.10;90.90;;;;;;5010783;28;20057;-78
2021/10/26 12:06:44;;;;;;;9.02;6.03;;;14.10;91.10;;;;;;5027435;28;20113;-78
2021/10/26 12:09:11;;;;;;;9.43;5.65;;;14.30;91.50;;;;;;5026850;28;20064;-78
2021/10/26 12:11:39;;;;;;;7.53;4.38;;;14.50;90.90;;;;;;5025136;28;20068;-78
2021/10/26 12:14:22;;;;;;;5.40;4.75;;;14.70;90.60;;;;;;5024379;28;20018;-79
2021/10/26 12:17:04;;;;;;;6.57;5.25;;;15.00;90.50;;;;;;5026412;28;20018;-79
2021/10/26 12:19:32;;;;;;;5.20;4.32;;;15.50;89.20;;;;;;5007729;28;20037;-79
2021/10/26 12:21:58;;;;;;;6.85;4.80;;;15.60;87.20;;;;;;5026012;28;20520;-79
2021/10/26 12:24:25;;;;;;;7.70;5.55;;;15.60;86.70;;;;;;5027985;28;20038;-79
2021/10/26 12:27:06;;;;;;;5.93;4.57;;;15.40;86.30;;;;;;5019123;28;20112;-79
2021/10/26 12:29:37;;;;;;;8.30;4.88;;;15.30;86.90;;;;;;5017401;28;20025;-80
2021/10/26 12:32:04;;;;;;;8.70;4.13;;;15.30;87.10;;;;;;5024309;28;20034;-78
2021/10/26 12:34:49;;;;;;;6.53;4.95;;;15.20;87.10;;;;;;5023433;28;20025;-78
2021/10/26 12:37:35;;;;;;;7.50;4.28;;;15.10;86.60;;;;;;5023010;28;20033;-78
2021/10/26 12:40:03;;;;;;;4.78;4.05;;;15.10;86.60;;;;;;5024201;28;20121;-78
2021/10/26 12:42:30;;;;;;;5.55;4.13;;;15.00;86.70;;;;;;5021462;28;20026;-79
2021/10/26 12:44:56;;;;;;;8.40;4.38;;;15.00;86.20;;;;;;5021536;28;20026;-78
2021/10/26 12:47:21;;;;;;;6.90;4.65;;;14.90;85.70;;;;;;5022090;28;20111;-78
2021/10/26 12:49:47;;;;;;;6.53;4.15;;;14.80;86.50;;;;;;5023987;28;20034;-79
2021/10/26 12:52:14;;;;;;;8.07;5.00;;;14.80;86.50;;;;;;5022794;28;20080;-79
2021/10/26 12:54:40;;;;;;;6.93;4.03;;;14.70;86.30;;;;;;5005622;28;20018;-78
2021/10/26 12:57:05;;;;;;;3.88;3.13;;;14.70;86.60;;;;;;5013649;28;20027;-79
2021/10/26 12:59:31;;;;;;;5.45;3.55;;;14.70;87.30;;;;;;5023044;28;20029;-77
2021/10/26 13:02:08;;;;;;;7.07;4.88;;;14.70;87.20;;;;;;5019379;28;20038;-78
2021/10/26 13:04:39;;;;;;;7.03;4.43;;;14.70;86.70;;;;;;5004122;28;20046;-78